Time;durP1;ratioP1;P1;durP2;ratioP2;P2;SDS_P1;SDS_P2;PMS_P1;PMS_P2;Temp;Humidity;BMP_temperature;BMP_pressure;BME280_temperature;BME280_humidity;BME280_pressure;Samples;Min_cycle;Max_cycle;Signal;HPM_P1;HPM_P2
2022/06/14 00:01:40;;;;;;;0.00;0.00;;;18.30;99.90;;;;;;5052539;28;20033;-73
2022/06/14 00:04:06;;;;;;;0.00;0.00;;;18.40;99.90;;;;;;5054403;28;20021;-74
2022/06/14 00:06:34;;;;;;;0.00;0.00;;;18.40;99.90;;;;;;5054626;28;20028;-74
2022/06/14 00:09:02;;;;;;;0.00;0.00;;;18.40;99.90;;;;;;5054074;28;20074;-73
2022/06/14 00:11:34;;;;;;;0.00;0.00;;;18.40;99.90;;;;;;5053281;28;20066;-73
2022/06/14 00:14:01;;;;;;;0.08;0.08;;;18.90;99.90;;;;;;5053975;28;20050;-74
2022/06/14 00:16:29;;;;;;;0.00;0.00;;;19.70;99.90;;;;;;5053902;28;20041;-74
2022/06/14 00:18:56;;;;;;;0.00;0.00;;;20.10;99.90;;;;;;5052530;28;20025;-74
2022/06/14 00:21:22;;;;;;;0.00;0.00;;;20.90;99.90;;;;;;5052905;28;20028;-74
2022/06/14 00:23:49;;;;;;;0.00;0.00;;;21.60;99.90;;;;;;5052986;28;20592;-74
2022/06/14 00:26:15;;;;;;;0.00;0.00;;;22.50;99.90;;;;;;5038845;28;20045;-72
2022/06/14 00:28:43;;;;;;;0.00;0.00;;;23.40;99.90;;;;;;5054083;28;20044;-72
2022/06/14 00:31:14;;;;;;;0.00;0.00;;;24.00;91.90;;;;;;5052691;28;20120;-75
2022/06/14 00:33:40;;;;;;;0.00;0.00;;;24.40;89.00;;;;;;5053473;28;20029;-73
2022/06/14 00:36:22;;;;;;;0.00;0.00;;;24.60;91.40;;;;;;5054236;28;20036;-73
2022/06/14 00:38:48;;;;;;;0.00;0.00;;;25.10;88.70;;;;;;5053907;28;20031;-73
2022/06/14 00:41:37;;;;;;;0.00;0.00;;;25.80;81.80;;;;;;5052728;28;20032;-73
2022/06/14 00:44:07;;;;;;;0.00;0.00;;;25.70;76.90;;;;;;5073004;28;20028;-73
2022/06/14 00:46:38;;;;;;;0.00;0.00;;;26.40;76.30;;;;;;5054522;28;20027;-73
2022/06/14 00:49:25;;;;;;;0.20;0.20;;;27.20;71.60;;;;;;5077439;28;20021;-73
2022/06/14 00:52:09;;;;;;;0.00;0.00;;;28.10;65.90;;;;;;5050972;28;20017;-73
2022/06/14 00:54:38;;;;;;;0.00;0.00;;;29.00;63.30;;;;;;5053754;28;20025;-74
2022/06/14 00:57:15;;;;;;;0.10;0.10;;;29.40;62.60;;;;;;5053591;28;20048;-73
2022/06/14 00:59:57;;;;;;;0.32;0.32;;;29.70;55.40;;;;;;5052510;28;20479;-74
2022/06/14 01:02:35;;;;;;;0.00;0.00;;;29.90;54.80;;;;;;5052848;28;20460;-74
2022/06/14 01:05:14;;;;;;;0.75;0.75;;;30.60;52.60;;;;;;5052383;28;20100;-72
2022/06/14 01:07:44;;;;;;;0.00;0.00;;;31.30;52.90;;;;;;5053893;28;20417;-73
2022/06/14 01:10:16;;;;;;;0.63;0.63;;;31.60;51.40;;;;;;5053013;28;20033;-74
2022/06/14 01:12:46;;;;;;;0.00;0.00;;;32.30;48.70;;;;;;5053451;28;20025;-74
2022/06/14 01:15:26;;;;;;;0.10;0.10;;;32.90;47.40;;;;;;5052321;28;20028;-74
2022/06/14 01:18:05;;;;;;;0.43;0.43;;;32.90;47.00;;;;;;5051040;28;20044;-75
2022/06/14 01:20:31;;;;;;;0.00;0.00;;;33.20;47.20;;;;;;5052134;28;20036;-75
2022/06/14 01:22:58;;;;;;;0.00;0.00;;;33.70;45.60;;;;;;5052002;28;20505;-75
2022/06/14 01:25:31;;;;;;;0.00;0.00;;;32.70;44.40;;;;;;5048079;28;20063;-75
2022/06/14 01:28:00;;;;;;;0.00;0.00;;;33.10;44.40;;;;;;5050255;28;20033;-74
2022/06/14 01:30:33;;;;;;;0.00;0.00;;;32.80;44.60;;;;;;5047281;28;20028;-75
2022/06/14 01:33:06;;;;;;;0.00;0.00;;;32.70;42.70;;;;;;5048380;28;20099;-75
2022/06/14 01:35:35;;;;;;;0.00;0.00;;;32.70;42.10;;;;;;5045905;28;20021;-74
2022/06/14 01:38:11;;;;;;;0.00;0.00;;;31.60;43.50;;;;;;5048724;28;20024;-74
2022/06/14 01:40:43;;;;;;;0.00;0.00;;;31.90;44.60;;;;;;5045387;28;20380;-74
2022/06/14 01:43:28;;;;;;;9.52;8.57;;;32.10;44.50;;;;;;5047432;28;20025;-74
2022/06/14 01:46:22;;;;;;;0.00;0.00;;;32.00;42.40;;;;;;5046087;28;20029;-74
2022/06/14 01:51:50;;;;;;;0.00;0.00;;;31.90;41.10;;;;;;5051016;28;20048;-74
2022/06/14 01:52:02;;;;;;;2.17;1.85;;;31.80;40.80;;;;;;5046740;28;20029;-74
2022/06/14 01:54:47;;;;;;;1.55;1.02;;;31.30;41.40;;;;;;5052866;28;20048;-74
2022/06/14 01:57:22;;;;;;;0.52;0.52;;;30.80;40.00;;;;;;5045828;28;20027;-74
2022/06/14 01:59:56;;;;;;;3.88;2.88;;;30.40;42.70;;;;;;5043668;28;20056;-75
2022/06/14 02:02:39;;;;;;;0.98;0.75;;;30.20;44.90;;;;;;5048436;28;20047;-75
2022/06/14 02:05:29;;;;;;;0.85;0.85;;;30.00;44.80;;;;;;5047370;28;20024;-75
2022/06/14 02:08:09;;;;;;;0.20;0.20;;;30.20;45.70;;;;;;5043735;28;20029;-74
2022/06/14 02:10:48;;;;;;;0.30;0.30;;;30.10;47.50;;;;;;5046778;28;20029;-74
2022/06/14 02:13:25;;;;;;;0.63;0.63;;;30.10;45.70;;;;;;5039885;28;20461;-74
2022/06/14 02:16:10;;;;;;;5.95;1.92;;;30.40;45.80;;;;;;5047787;28;20032;-73
2022/06/14 02:18:58;;;;;;;0.15;0.15;;;30.40;46.70;;;;;;5043016;28;20041;-73
2022/06/14 02:21:42;;;;;;;0.03;0.03;;;30.20;47.70;;;;;;5044106;28;20056;-74
2022/06/14 02:24:12;;;;;;;0.00;0.00;;;30.10;45.80;;;;;;5041077;28;20033;-74
2022/06/14 02:26:50;;;;;;;0.47;0.47;;;30.30;46.10;;;;;;5043012;28;20025;-74
2022/06/14 02:29:23;;;;;;;0.28;0.28;;;31.20;45.50;;;;;;5043510;28;20017;-74
2022/06/14 02:32:03;;;;;;;0.30;0.30;;;31.10;44.70;;;;;;5041406;28;20032;-73
2022/06/14 02:34:51;;;;;;;0.30;0.30;;;31.30;44.60;;;;;;5046720;28;20556;-74
2022/06/14 02:37:34;;;;;;;0.25;0.25;;;31.60;43.80;;;;;;5041268;28;20044;-74
2022/06/14 02:40:10;;;;;;;1.63;1.52;;;31.60;43.90;;;;;;5038859;28;20111;-73
2022/06/14 02:42:49;;;;;;;1.10;0.90;;;31.50;45.70;;;;;;5049243;28;20479;-73
2022/06/14 02:45:25;;;;;;;0.52;0.43;;;31.10;45.90;;;;;;5053783;28;20072;-73
2022/06/14 02:48:20;;;;;;;1.90;0.65;;;29.80;48.30;;;;;;5050402;28;20150;-74
2022/06/14 02:51:09;;;;;;;1.02;1.02;;;29.90;48.50;;;;;;5024947;28;20033;-73
2022/06/14 02:53:43;;;;;;;0.22;0.22;;;30.00;48.20;;;;;;5047345;28;20036;-76
2022/06/14 02:56:23;;;;;;;2.83;1.85;;;29.40;48.80;;;;;;5045805;28;20029;-74
2022/06/14 02:59:29;;;;;;;0.35;0.35;;;28.90;48.70;;;;;;5047394;28;20528;-74
2022/06/14 03:01:58;;;;;;;0.40;0.28;;;28.40;47.50;;;;;;5039105;28;20052;-74
2022/06/14 03:04:42;;;;;;;0.00;0.00;;;28.50;47.10;;;;;;5046484;28;20048;-75
2022/06/14 03:07:13;;;;;;;0.10;0.10;;;28.60;47.00;;;;;;5021545;28;20170;-75
2022/06/14 03:09:43;;;;;;;1.65;1.55;;;28.40;46.60;;;;;;5025893;28;20017;-75
2022/06/14 03:12:18;;;;;;;0.57;0.57;;;28.80;46.70;;;;;;5017199;28;20354;-73
2022/06/14 03:15:06;;;;;;;1.25;0.50;;;29.60;46.80;;;;;;5016219;28;20037;-75
2022/06/14 03:17:35;;;;;;;0.28;0.28;;;30.00;45.00;;;;;;5014311;28;20667;-74
2022/06/14 03:20:23;;;;;;;1.45;1.10;;;29.30;44.60;;;;;;5017809;28;20698;-74
2022/06/14 03:23:14;;;;;;;0.00;0.00;;;29.30;45.10;;;;;;5018784;28;20037;-75
2022/06/14 03:26:02;;;;;;;0.00;0.00;;;29.10;45.80;;;;;;5016040;28;20034;-76
2022/06/14 03:28:53;;;;;;;0.00;0.00;;;29.30;44.10;;;;;;5015517;28;20033;-74
2022/06/14 03:31:40;;;;;;;0.00;0.00;;;30.20;43.50;;;;;;5020698;28;20029;-74
2022/06/14 03:34:17;;;;;;;0.00;0.00;;;30.40;43.40;;;;;;5024592;28;20029;-75
2022/06/14 03:36:43;;;;;;;0.15;0.15;;;30.80;42.90;;;;;;5021117;28;20022;-75
2022/06/14 03:39:17;;;;;;;0.30;0.30;;;30.70;42.20;;;;;;5016652;28;20032;-75
2022/06/14 03:41:46;;;;;;;0.00;0.00;;;30.50;42.90;;;;;;5024918;28;20390;-75
2022/06/14 03:44:14;;;;;;;0.00;0.00;;;30.50;43.10;;;;;;5021477;28;20539;-74
2022/06/14 03:47:15;;;;;;;0.80;0.65;;;30.60;41.20;;;;;;5020857;28;20059;-74
2022/06/14 03:49:56;;;;;;;0.32;0.32;;;30.60;41.10;;;;;;5019618;28;20468;-74
2022/06/14 03:52:59;;;;;;;0.15;0.15;;;31.30;40.80;;;;;;5016972;28;20491;-74
2022/06/14 03:55:37;;;;;;;0.30;0.22;;;30.90;40.30;;;;;;5032488;28;20550;-75
2022/06/14 03:58:28;;;;;;;0.52;0.00;;;31.20;40.70;;;;;;5027978;28;20037;-74
2022/06/14 04:01:03;;;;;;;0.57;0.25;;;30.80;40.80;;;;;;5028741;28;20033;-74
2022/06/14 04:03:42;;;;;;;0.10;0.10;;;30.10;41.00;;;;;;5024462;28;20493;-74
2022/06/14 04:06:41;;;;;;;0.38;0.38;;;29.60;42.10;;;;;;5022489;28;20037;-74
2022/06/14 04:09:39;;;;;;;0.60;0.00;;;29.10;41.60;;;;;;5023022;28;20029;-74
2022/06/14 04:12:38;;;;;;;0.00;0.00;;;28.90;40.60;;;;;;5023790;28;20017;-74
2022/06/14 04:15:13;;;;;;;0.13;0.10;;;28.80;42.40;;;;;;5025370;28;20383;-75
2022/06/14 04:17:58;;;;;;;0.20;0.20;;;28.90;42.00;;;;;;5026561;28;20083;-76
2022/06/14 04:20:42;;;;;;;0.88;0.82;;;28.80;42.20;;;;;;5015840;28;20068;-76
2022/06/14 04:23:33;;;;;;;0.00;0.00;;;28.70;41.80;;;;;;5010788;28;20079;-76
2022/06/14 04:26:15;;;;;;;0.90;0.10;;;28.80;41.80;;;;;;5044337;28;20044;-76
2022/06/14 04:28:58;;;;;;;0.47;0.30;;;29.00;42.00;;;;;;5018333;28;20026;-76
2022/06/14 04:32:03;;;;;;;4.60;2.15;;;29.10;42.30;;;;;;5023553;28;20380;-76
2022/06/14 04:34:37;;;;;;;0.00;0.00;;;28.80;42.50;;;;;;5016737;28;20140;-75
2022/06/14 04:37:20;;;;;;;0.30;0.20;;;28.70;42.30;;;;;;5019295;28;20049;-75
2022/06/14 04:40:10;;;;;;;4.63;0.20;;;28.40;42.70;;;;;;5015117;28;21854;-75
2022/06/14 04:42:49;;;;;;;0.73;0.20;;;28.70;42.30;;;;;;5015480;28;20025;-74
2022/06/14 04:45:32;;;;;;;0.32;0.32;;;28.50;43.30;;;;;;5020842;28;20218;-76
2022/06/14 04:48:15;;;;;;;0.00;0.00;;;28.80;42.50;;;;;;5023907;28;20033;-75
2022/06/14 04:50:45;;;;;;;0.65;0.65;;;28.70;43.20;;;;;;5024599;28;20396;-75
2022/06/14 04:53:27;;;;;;;0.00;0.00;;;29.00;42.20;;;;;;5025056;28;20116;-74
2022/06/14 04:56:02;;;;;;;0.43;0.32;;;28.90;44.50;;;;;;5023330;28;20380;-75
2022/06/14 04:58:51;;;;;;;0.00;0.00;;;28.80;44.30;;;;;;5032201;28;20155;-74
2022/06/14 05:01:33;;;;;;;0.13;0.13;;;28.80;44.40;;;;;;5035013;28;20503;-74
2022/06/14 05:04:19;;;;;;;9.07;1.67;;;28.80;44.30;;;;;;5032493;28;20027;-74
2022/06/14 05:06:57;;;;;;;0.00;0.00;;;28.70;45.10;;;;;;5019325;28;20091;-75
2022/06/14 05:09:29;;;;;;;0.05;0.05;;;28.80;43.70;;;;;;5018958;28;20029;-75
2022/06/14 05:11:58;;;;;;;0.00;0.00;;;28.80;44.60;;;;;;5016341;28;20082;-74
2022/06/14 05:14:53;;;;;;;1.35;0.85;;;28.40;45.20;;;;;;5017378;28;20476;-76
2022/06/14 05:17:35;;;;;;;0.00;0.00;;;28.60;44.60;;;;;;5014246;28;20439;-75
2022/06/14 05:20:05;;;;;;;1.77;0.17;;;28.80;44.40;;;;;;5018417;28;20029;-75
2022/06/14 05:22:35;;;;;;;0.00;0.00;;;28.70;42.50;;;;;;5024378;28;20132;-74
2022/06/14 05:25:03;;;;;;;0.20;0.20;;;28.50;40.80;;;;;;5033961;28;20065;-75
2022/06/14 05:27:41;;;;;;;0.00;0.00;;;28.80;37.30;;;;;;5032882;28;20139;-75
2022/06/14 05:30:49;;;;;;;0.00;0.00;;;28.60;40.00;;;;;;5017172;28;20419;-74
2022/06/14 05:33:58;;;;;;;0.00;0.00;;;28.80;38.40;;;;;;5023440;28;20144;-75
2022/06/14 05:36:37;;;;;;;0.00;0.00;;;29.10;35.40;;;;;;5021975;28;21499;-76
2022/06/14 05:39:12;;;;;;;0.10;0.10;;;29.30;35.90;;;;;;5018838;28;20059;-73
2022/06/14 05:41:48;;;;;;;0.05;0.05;;;29.20;37.30;;;;;;5021857;28;20504;-74
2022/06/14 05:44:25;;;;;;;7.22;2.40;;;29.10;36.80;;;;;;5023391;28;20040;-75
2022/06/14 05:46:55;;;;;;;0.25;0.25;;;29.30;37.40;;;;;;5015630;28;20033;-74
2022/06/14 05:49:29;;;;;;;0.00;0.00;;;29.30;36.80;;;;;;5024366;28;20033;-76
2022/06/14 05:52:18;;;;;;;1.67;0.47;;;29.50;35.00;;;;;;5015936;28;20373;-75
2022/06/14 05:54:58;;;;;;;0.28;0.28;;;29.70;36.60;;;;;;5019848;28;20033;-75
2022/06/14 05:57:37;;;;;;;0.00;0.00;;;29.90;35.70;;;;;;5018010;28;20029;-75
2022/06/14 06:00:17;;;;;;;0.10;0.10;;;30.10;35.40;;;;;;5021558;28;20033;-75
2022/06/14 06:02:57;;;;;;;1.70;0.50;;;30.20;35.20;;;;;;5022411;28;20093;-74
2022/06/14 06:05:43;;;;;;;0.00;0.00;;;30.20;35.80;;;;;;5021254;28;20538;-75
2022/06/14 06:08:37;;;;;;;0.00;0.00;;;29.70;35.20;;;;;;5019947;28;20594;-75
2022/06/14 06:11:21;;;;;;;8.82;0.73;;;29.60;36.40;;;;;;5017118;28;20091;-74
2022/06/14 06:13:59;;;;;;;0.10;0.10;;;29.60;36.20;;;;;;5020775;28;20021;-73
2022/06/14 06:16:43;;;;;;;0.00;0.00;;;29.60;36.50;;;;;;5014230;28;20053;-72
2022/06/14 06:19:24;;;;;;;0.03;0.03;;;29.50;36.90;;;;;;5022730;28;20029;-74
2022/06/14 06:22:01;;;;;;;0.00;0.00;;;29.70;34.50;;;;;;5019180;28;20037;-74
2022/06/14 06:24:43;;;;;;;0.38;0.32;;;29.70;33.60;;;;;;5017358;28;20053;-75
2022/06/14 06:27:11;;;;;;;0.28;0.28;;;29.40;33.30;;;;;;5019773;28;20412;-74
2022/06/14 06:29:56;;;;;;;0.00;0.00;;;29.60;32.70;;;;;;5022822;28;20108;-75
2022/06/14 06:32:24;;;;;;;0.20;0.20;;;29.50;34.00;;;;;;5014450;28;20411;-75
2022/06/14 06:34:51;;;;;;;0.65;0.43;;;29.60;32.70;;;;;;5022332;28;20696;-74
2022/06/14 06:37:32;;;;;;;0.10;0.10;;;29.80;31.60;;;;;;5021813;28;20029;-75
2022/06/14 06:40:10;;;;;;;0.00;0.00;;;29.90;32.90;;;;;;5018423;28;20261;-75
2022/06/14 06:42:46;;;;;;;0.00;0.00;;;29.80;31.90;;;;;;5022571;28;20441;-75
2022/06/14 06:45:37;;;;;;;0.65;0.22;;;29.90;33.40;;;;;;5017618;28;20025;-75
2022/06/14 06:48:19;;;;;;;3.63;3.33;;;30.10;32.50;;;;;;5037643;28;20116;-75
2022/06/14 06:50:53;;;;;;;0.20;0.17;;;30.20;32.00;;;;;;5044521;28;20040;-73
2022/06/14 06:53:23;;;;;;;0.00;0.00;;;29.90;32.40;;;;;;5021238;28;20029;-75
2022/06/14 06:56:12;;;;;;;0.10;0.10;;;29.90;32.90;;;;;;5022606;28;20048;-73
2022/06/14 06:58:51;;;;;;;3.00;1.40;;;30.10;31.90;;;;;;5022054;28;20405;-73
2022/06/14 07:01:31;;;;;;;0.10;0.10;;;30.40;31.90;;;;;;5021006;28;20124;-74
2022/06/14 07:04:14;;;;;;;0.00;0.00;;;30.40;31.80;;;;;;5023045;28;20069;-74
2022/06/14 07:06:42;;;;;;;0.00;0.00;;;30.20;32.50;;;;;;5018624;28;20099;-74
2022/06/14 07:09:22;;;;;;;0.00;0.00;;;30.30;32.90;;;;;;5022091;28;21177;-73
2022/06/14 07:11:55;;;;;;;0.45;0.45;;;30.70;32.10;;;;;;5020088;28;20025;-73
2022/06/14 07:14:24;;;;;;;0.00;0.00;;;30.90;31.80;;;;;;5019536;28;20047;-74
2022/06/14 07:17:02;;;;;;;0.00;0.00;;;30.40;32.60;;;;;;5021197;28;20104;-74
2022/06/14 07:19:54;;;;;;;0.00;0.00;;;30.10;34.20;;;;;;5023378;28;21287;-72
2022/06/14 07:22:22;;;;;;;0.08;0.08;;;30.70;33.70;;;;;;5020330;28;20047;-72
2022/06/14 07:25:09;;;;;;;0.00;0.00;;;30.50;31.80;;;;;;5021723;28;20030;-72
2022/06/14 07:27:43;;;;;;;0.00;0.00;;;30.60;31.80;;;;;;5023453;28;20159;-74
2022/06/14 07:30:16;;;;;;;1.45;1.35;;;30.40;31.70;;;;;;5024564;28;20111;-74
2022/06/14 07:32:50;;;;;;;0.13;0.13;;;30.40;31.00;;;;;;5021841;28;20017;-73
2022/06/14 07:35:31;;;;;;;0.00;0.00;;;30.10;30.40;;;;;;5022481;28;20022;-73
2022/06/14 07:38:44;;;;;;;0.32;0.20;;;30.60;30.70;;;;;;5019031;28;20421;-74
2022/06/14 07:41:28;;;;;;;0.00;0.00;;;30.80;32.20;;;;;;5018226;28;20033;-74
2022/06/14 07:44:17;;;;;;;1.65;0.20;;;30.50;31.90;;;;;;5021391;28;20406;-73
2022/06/14 07:47:02;;;;;;;0.30;0.30;;;30.60;30.20;;;;;;5022426;28;20578;-74
2022/06/14 07:50:02;;;;;;;0.38;0.38;;;30.40;31.60;;;;;;5022159;28;20706;-73
2022/06/14 07:52:42;;;;;;;0.00;0.00;;;30.50;30.60;;;;;;5024315;28;20024;-73
2022/06/14 07:55:24;;;;;;;0.00;0.00;;;31.00;30.10;;;;;;5019287;28;20486;-72
2022/06/14 07:57:57;;;;;;;0.00;0.00;;;31.10;30.00;;;;;;5021873;28;20409;-73
2022/06/14 08:03:30;;;;;;;0.00;0.00;;;31.40;30.20;;;;;;5020723;28;20522;-74
2022/06/14 08:05:57;;;;;;;11.77;0.75;;;31.10;29.60;;;;;;5017511;28;20038;-73
2022/06/14 08:08:30;;;;;;;0.25;0.25;;;31.20;31.10;;;;;;5021725;28;20035;-74
2022/06/14 08:11:02;;;;;;;1.95;1.85;;;31.50;30.50;;;;;;5017912;28;20566;-74
2022/06/14 08:13:39;;;;;;;0.00;0.00;;;31.60;30.30;;;;;;5021491;28;20021;-74
2022/06/14 08:16:08;;;;;;;0.55;0.47;;;31.90;29.50;;;;;;5024293;28;20515;-72
2022/06/14 08:18:48;;;;;;;0.10;0.10;;;31.80;29.50;;;;;;5026975;28;20041;-73
2022/06/14 08:21:16;;;;;;;2.60;2.42;;;31.90;28.90;;;;;;5025519;28;20026;-73
2022/06/14 08:23:52;;;;;;;0.00;0.00;;;31.50;29.10;;;;;;5025888;28;20419;-73
2022/06/14 08:26:24;;;;;;;0.00;0.00;;;31.40;28.50;;;;;;5027474;28;20060;-74
2022/06/14 08:29:03;;;;;;;0.20;0.20;;;31.00;27.40;;;;;;5022813;28;20590;-74
2022/06/14 08:31:40;;;;;;;1.13;0.57;;;30.90;28.80;;;;;;5015714;28;20071;-73
2022/06/14 08:34:13;;;;;;;0.43;0.43;;;31.00;28.00;;;;;;5015890;28;20120;-73
2022/06/14 08:36:52;;;;;;;10.25;7.93;;;31.10;28.70;;;;;;5023532;28;20025;-73
2022/06/14 08:39:34;;;;;;;1.70;1.58;;;31.20;30.00;;;;;;5023542;28;20404;-73
2022/06/14 08:42:29;;;;;;;0.25;0.22;;;31.70;28.80;;;;;;5014662;28;20116;-74
2022/06/14 08:45:00;;;;;;;0.00;0.00;;;31.80;29.20;;;;;;5019450;28;20111;-73
2022/06/14 08:47:49;;;;;;;0.32;0.32;;;32.10;28.70;;;;;;5024274;28;20496;-74
2022/06/14 08:50:36;;;;;;;3.90;3.65;;;32.00;28.30;;;;;;5026217;28;20132;-74
2022/06/14 08:53:22;;;;;;;0.85;0.57;;;32.00;28.60;;;;;;5024923;28;20056;-74
2022/06/14 08:56:19;;;;;;;2.58;1.23;;;31.70;29.10;;;;;;5018000;28;20038;-74
2022/06/14 08:58:55;;;;;;;0.03;0.03;;;31.50;28.00;;;;;;5027022;28;20314;-75
2022/06/14 09:01:40;;;;;;;0.10;0.10;;;31.30;28.80;;;;;;5021693;28;20103;-75
2022/06/14 09:04:15;;;;;;;0.00;0.00;;;31.80;28.10;;;;;;5034486;28;20025;-76
2022/06/14 09:07:03;;;;;;;0.00;0.00;;;31.80;27.30;;;;;;5028462;28;20042;-75
2022/06/14 09:09:32;;;;;;;0.05;0.05;;;31.70;27.40;;;;;;5026853;28;20063;-74
2022/06/14 09:12:23;;;;;;;0.00;0.00;;;32.00;28.10;;;;;;5018951;28;20454;-73
2022/06/14 09:15:11;;;;;;;2.72;1.73;;;32.10;27.50;;;;;;5023871;28;20018;-75
2022/06/14 09:18:14;;;;;;;0.00;0.00;;;32.00;27.30;;;;;;5020917;28;20057;-74
2022/06/14 09:20:58;;;;;;;0.00;0.00;;;31.90;27.10;;;;;;5021778;28;20033;-76
2022/06/14 09:23:45;;;;;;;0.03;0.03;;;31.60;27.30;;;;;;5026136;28;20029;-76
2022/06/14 09:26:29;;;;;;;1.23;1.13;;;31.10;26.50;;;;;;5026115;28;20041;-75
2022/06/14 09:29:18;;;;;;;0.00;0.00;;;31.30;26.60;;;;;;5022088;28;20374;-75
2022/06/14 09:32:16;;;;;;;0.00;0.00;;;31.50;28.20;;;;;;5025324;28;20029;-75
2022/06/14 09:34:48;;;;;;;0.00;0.00;;;31.80;27.90;;;;;;5021658;28;20460;-75
2022/06/14 09:37:44;;;;;;;0.10;0.10;;;32.30;28.20;;;;;;5019894;28;20554;-75
2022/06/14 09:40:28;;;;;;;0.00;0.00;;;32.60;27.70;;;;;;5024944;28;20033;-74
2022/06/14 09:43:23;;;;;;;0.40;0.35;;;32.80;26.60;;;;;;5020643;28;20032;-75
2022/06/14 09:46:30;;;;;;;0.00;0.00;;;31.70;28.20;;;;;;5024631;28;20475;-75
2022/06/14 09:49:22;;;;;;;0.00;0.00;;;31.50;28.90;;;;;;5022342;28;20069;-75
2022/06/14 09:52:15;;;;;;;0.00;0.00;;;31.80;27.90;;;;;;5023617;28;20295;-75
2022/06/14 09:55:06;;;;;;;0.25;0.25;;;31.80;28.60;;;;;;5026266;28;20022;-75
2022/06/14 09:57:35;;;;;;;0.00;0.00;;;31.50;28.10;;;;;;5028216;28;20063;-75
2022/06/14 10:00:13;;;;;;;0.00;0.00;;;31.60;28.40;;;;;;5025420;28;20036;-75
2022/06/14 10:02:54;;;;;;;0.08;0.08;;;31.90;28.20;;;;;;5022795;28;20045;-75
2022/06/14 10:05:50;;;;;;;0.00;0.00;;;31.90;27.90;;;;;;5025338;28;20033;-75
2022/06/14 10:08:28;;;;;;;0.00;0.00;;;32.10;28.30;;;;;;5019279;28;20134;-75
2022/06/14 10:11:12;;;;;;;0.15;0.15;;;31.80;29.00;;;;;;5018009;28;20034;-76
2022/06/14 10:13:41;;;;;;;0.43;0.43;;;31.60;29.20;;;;;;5017704;28;20518;-74
2022/06/14 10:16:29;;;;;;;0.00;0.00;;;31.10;28.80;;;;;;5019530;28;20048;-74
2022/06/14 10:19:36;;;;;;;0.30;0.30;;;31.00;29.50;;;;;;5023199;28;20076;-75
2022/06/14 10:22:14;;;;;;;1.27;1.27;;;31.00;28.80;;;;;;5027756;28;20029;-75
2022/06/14 10:24:54;;;;;;;0.00;0.00;;;31.10;29.60;;;;;;5031034;28;20025;-74
2022/06/14 10:28:11;;;;;;;0.30;0.20;;;31.10;28.50;;;;;;5019705;28;20037;-75
2022/06/14 10:30:58;;;;;;;0.00;0.00;;;31.30;28.70;;;;;;5023517;28;20071;-74
2022/06/14 10:33:59;;;;;;;0.25;0.25;;;31.40;29.30;;;;;;5024634;28;20017;-76
2022/06/14 10:36:28;;;;;;;0.00;0.00;;;31.40;29.10;;;;;;5010246;28;20048;-75
2022/06/14 10:38:54;;;;;;;0.00;0.00;;;31.30;29.20;;;;;;5021600;28;20419;-76
2022/06/14 10:41:42;;;;;;;0.20;0.10;;;31.60;28.10;;;;;;5019138;28;20087;-76
2022/06/14 10:44:39;;;;;;;0.15;0.15;;;31.50;28.20;;;;;;5024327;28;20471;-75
2022/06/14 10:47:44;;;;;;;3.00;0.28;;;31.10;28.20;;;;;;5024070;28;20175;-75
2022/06/14 10:50:36;;;;;;;0.00;0.00;;;30.90;28.60;;;;;;5020562;28;20025;-75
2022/06/14 10:53:27;;;;;;;0.00;0.00;;;31.30;28.50;;;;;;5023216;28;20418;-75
2022/06/14 10:55:56;;;;;;;0.00;0.00;;;31.50;28.50;;;;;;5028105;28;20025;-75
2022/06/14 10:58:59;;;;;;;0.65;0.28;;;31.50;27.80;;;;;;5026826;28;20053;-75
2022/06/14 11:01:37;;;;;;;0.00;0.00;;;30.80;27.70;;;;;;5022032;28;20024;-74
2022/06/14 11:04:12;;;;;;;0.00;0.00;;;30.60;28.90;;;;;;5026547;28;20789;-76
2022/06/14 11:07:07;;;;;;;0.00;0.00;;;30.90;28.80;;;;;;5023348;28;20029;-75
2022/06/14 11:09:39;;;;;;;0.03;0.03;;;31.10;28.40;;;;;;5021102;28;20044;-74
2022/06/14 11:12:24;;;;;;;0.00;0.00;;;31.00;28.70;;;;;;5024255;28;20037;-74
2022/06/14 11:15:32;;;;;;;0.00;0.00;;;31.20;28.40;;;;;;5023103;28;20021;-77
2022/06/14 11:18:28;;;;;;;0.00;0.00;;;31.50;28.30;;;;;;5025396;28;20045;-75
2022/06/14 11:21:16;;;;;;;0.00;0.00;;;31.30;28.20;;;;;;5023545;28;20036;-75
2022/06/14 11:23:56;;;;;;;0.00;0.00;;;31.30;28.30;;;;;;5019100;28;20026;-74
2022/06/14 11:26:22;;;;;;;0.00;0.00;;;31.50;27.70;;;;;;5026254;28;20033;-75
2022/06/14 11:29:00;;;;;;;5.72;5.47;;;31.70;27.70;;;;;;5021552;28;20112;-74
2022/06/14 11:31:37;;;;;;;1.65;1.55;;;31.80;27.60;;;;;;5022658;28;20049;-74
2022/06/14 11:34:31;;;;;;;0.00;0.00;;;31.90;27.80;;;;;;5028197;28;20021;-74
2022/06/14 11:37:26;;;;;;;0.00;0.00;;;32.00;28.00;;;;;;5059539;28;20033;-73
2022/06/14 11:40:13;;;;;;;0.00;0.00;;;32.10;28.70;;;;;;5027920;28;20025;-74
2022/06/14 11:42:49;;;;;;;0.00;0.00;;;32.30;28.30;;;;;;5024668;28;20293;-74
2022/06/14 11:45:26;;;;;;;0.00;0.00;;;32.60;28.40;;;;;;5029461;28;20029;-74
2022/06/14 11:48:05;;;;;;;0.00;0.00;;;32.80;28.50;;;;;;5030851;28;20036;-74
2022/06/14 11:51:01;;;;;;;0.00;0.00;;;32.20;29.20;;;;;;5026548;28;20045;-75
2022/06/14 11:53:41;;;;;;;0.00;0.00;;;31.80;29.20;;;;;;5024853;28;20029;-74
2022/06/14 11:56:18;;;;;;;1.33;0.40;;;31.10;29.50;;;;;;5033177;28;20061;-74
2022/06/14 11:59:11;;;;;;;0.00;0.00;;;30.80;30.00;;;;;;5045918;28;20049;-75
2022/06/14 12:02:02;;;;;;;0.00;0.00;;;30.70;29.30;;;;;;5045127;28;20076;-74
2022/06/14 12:04:59;;;;;;;0.00;0.00;;;30.50;29.80;;;;;;5031681;28;20017;-76
2022/06/14 12:07:40;;;;;;;0.00;0.00;;;30.70;29.70;;;;;;5023916;28;20034;-74
2022/06/14 12:10:37;;;;;;;0.00;0.00;;;30.70;30.10;;;;;;5025026;28;20038;-73
2022/06/14 12:13:13;;;;;;;0.00;0.00;;;31.00;30.80;;;;;;5025237;28;20393;-74
2022/06/14 12:16:05;;;;;;;0.03;0.03;;;31.30;30.50;;;;;;5025457;28;20022;-73
2022/06/14 12:18:34;;;;;;;0.00;0.00;;;31.40;30.10;;;;;;5030102;28;20464;-76
2022/06/14 12:21:15;;;;;;;0.03;0.03;;;30.80;30.70;;;;;;5030198;28;20026;-74
2022/06/14 12:23:49;;;;;;;2.05;1.95;;;31.00;31.10;;;;;;5031783;28;20430;-74
2022/06/14 12:26:57;;;;;;;0.00;0.00;;;30.70;30.90;;;;;;5027372;28;20037;-73
2022/06/14 12:29:37;;;;;;;0.10;0.10;;;30.50;30.70;;;;;;5021887;28;20029;-73
2022/06/14 12:32:20;;;;;;;0.00;0.00;;;30.60;30.10;;;;;;5028851;28;20037;-75
2022/06/14 12:35:03;;;;;;;0.20;0.20;;;30.80;31.30;;;;;;5045889;28;20033;-76
2022/06/14 12:38:02;;;;;;;0.00;0.00;;;30.80;31.70;;;;;;5024148;28;20384;-76
2022/06/14 12:40:34;;;;;;;0.00;0.00;;;31.00;31.50;;;;;;5024013;28;20144;-73
2022/06/14 12:43:06;;;;;;;0.00;0.00;;;31.10;30.50;;;;;;5058595;28;20061;-75
2022/06/14 12:45:43;;;;;;;0.00;0.00;;;31.10;30.00;;;;;;5026089;28;20041;-74
2022/06/14 12:48:30;;;;;;;0.00;0.00;;;30.80;30.10;;;;;;5032802;28;20151;-74
2022/06/14 12:51:08;;;;;;;0.00;0.00;;;31.00;30.00;;;;;;5035322;28;20064;-74
2022/06/14 12:53:46;;;;;;;0.00;0.00;;;31.10;29.90;;;;;;5033198;28;20033;-74
2022/06/14 12:56:21;;;;;;;4.63;2.25;;;30.60;31.00;;;;;;5030162;28;20040;-73
2022/06/14 12:59:08;;;;;;;0.00;0.00;;;30.40;31.30;;;;;;5026946;28;20087;-74
2022/06/14 13:01:41;;;;;;;0.00;0.00;;;30.50;31.40;;;;;;5029218;28;20116;-75
2022/06/14 13:04:48;;;;;;;0.00;0.00;;;30.10;32.00;;;;;;5025541;28;20037;-73
2022/06/14 13:07:20;;;;;;;13.52;12.57;;;30.10;32.30;;;;;;5026612;28;20487;-73
2022/06/14 13:09:52;;;;;;;0.00;0.00;;;30.30;31.80;;;;;;5031678;28;20026;-74
2022/06/14 13:12:54;;;;;;;0.00;0.00;;;30.40;31.20;;;;;;5034087;28;20075;-74
2022/06/14 13:15:38;;;;;;;0.00;0.00;;;30.40;31.00;;;;;;5043327;28;20080;-74
2022/06/14 13:18:11;;;;;;;0.00;0.00;;;30.40;30.90;;;;;;5047874;28;20045;-73
2022/06/14 13:20:59;;;;;;;0.00;0.00;;;30.50;31.50;;;;;;5035177;28;20034;-74
2022/06/14 13:23:52;;;;;;;0.13;0.10;;;30.50;31.40;;;;;;5033308;28;20029;-75
2022/06/14 13:26:29;;;;;;;0.00;0.00;;;30.60;31.40;;;;;;5030669;28;20041;-74
2022/06/14 13:29:17;;;;;;;0.60;0.60;;;30.40;31.30;;;;;;5026655;28;20034;-74
2022/06/14 13:31:50;;;;;;;0.20;0.20;;;30.10;34.10;;;;;;5029245;28;20021;-74
2022/06/14 13:34:53;;;;;;;1.23;0.38;;;29.20;40.40;;;;;;5028424;28;20045;-74
2022/06/14 13:37:52;;;;;;;0.82;0.82;;;28.00;42.50;;;;;;5032477;28;20029;-74
2022/06/14 13:40:29;;;;;;;1.95;0.57;;;27.60;44.40;;;;;;5031530;28;20040;-76
2022/06/14 13:43:09;;;;;;;0.17;0.13;;;27.40;48.80;;;;;;5029505;28;20025;-74
2022/06/14 13:46:15;;;;;;;0.00;0.00;;;27.30;39.80;;;;;;5025472;28;20033;-74
2022/06/14 13:49:15;;;;;;;0.00;0.00;;;27.40;39.60;;;;;;5031259;28;20040;-72
2022/06/14 13:52:07;;;;;;;0.45;0.20;;;27.80;40.20;;;;;;5031410;28;20021;-73
2022/06/14 13:54:39;;;;;;;0.20;0.20;;;27.70;40.10;;;;;;5030833;28;20115;-73
2022/06/14 13:57:23;;;;;;;0.00;0.00;;;27.90;36.90;;;;;;5031897;28;20080;-73
2022/06/14 13:59:52;;;;;;;0.00;0.00;;;28.20;36.50;;;;;;5031509;28;20029;-72
2022/06/14 14:02:24;;;;;;;0.00;0.00;;;28.30;38.70;;;;;;5022210;28;20022;-73